Cumberland, Rhode Island
Current Conditions -  °F | °C
As of 6:15 PM on Tuesday 25 Nov 2014 (Local Time) from KSFZ Reporting Station
Clear Clear  
Wind Chill: 50°   Ceiling: Unl
Heat Index: 50°   Visibility: 10mi
Dew Point: 21°   Wind: 7mph
Humidity: 32%   Direction: 260°W
Pressure: 29.98"   Gusts: NA
Location:  41.95°N, 71.42°W
Report Text: KSFZ 252315Z 26006KT 10SM CLR 10/M06 A2998 RMK AO1
Loading
Personal Weather Stations






























Interactive Weather Map New forecast layout! Learn more

10-Day Weather Forecast

Advertisements
Track Severe Weather on mobile